Arapahoe, NE

9:54 PM CST on February 13, 2016 (GMT -0600)
Arapahoe Municipal Airport | | Change Station
CLOSE
Current Station
Personal Weather Station
Location: Arapahoe, NE
Elevation: 2257 ft
Nearby Weather Stations

Elev 2257 ft 40.34 °N, 99.90 °W | Updated 4 minutes ago

Mostly Cloudy
Mostly Cloudy
23.0 °F
Feels Like 15 °F
N
6.8
Wind Variable Wind from South

Today
High -- | Low -- °F
--% Chance of Precip.
Yesterday
High -- | Low -- °F
Precip. -- in
Pressure 30.00 in
Visibility 10.0 miles
Clouds Clear
Windchill 15 °F
Dew Point 20 °F
Humidity 88%
Rainfall 0.00 in
Snow Depth Not available.
7:35 AM 6:12 PM
Waxing Crescent, 37% visible
METAR KHDE 140335Z AUTO 15006KT 10SM CLR M07/M11 A3000 RMK AO2 T10681107
Pressure 30.00 in
Visibility 10.0 miles
Clouds Clear
Windchill 15 °F
Dew Point 20 °F
Humidity 88%
Rainfall 0.00 in
Snow Depth Not available.
7:35 AM 6:12 PM
Waxing Crescent, 37% visible
METAR KHDE 140335Z AUTO 15006KT 10SM CLR M07/M11 A3000 RMK AO2 T10681107

10-Day Weather Forecast

Almanac

Astronomy

Feb. 13, 2016 Rise Set
Actual Time
Civil Twilight
Nautical Twilight
Astronomical Twilight
Moon
Length of Visible Light
Length of Day
Tomorrow will be .
, % of the Moon is Illuminated

Today's Extremes

State Highs State Lows

Community

WunderPhotos

Upload Photos

1,892,738 photos uploaded!

WunderBlog® & News

Nearby

Air Quality

  Air Quality AQ Index Pollutant
Not available.

Snow Depth

Station Depth Elevation

Earthquake Activity

City Distance Mag. Time & Date
Minimum magnitude displayed is 2.5.

Coastal Water Temperatures

Place Temperature

Stations

Nearby Weather Stations

Station Location Temp. Windchill Dew Point Humidity Wind Precip. Elev Updated Type
                   

Watches & Warnings

There are currently no watches in effect.